createdAt,value
2018-06-13T08:07:14.470Z,19.85
2018-06-13T08:09:42.912Z,19.93
2018-06-13T08:12:11.848Z,19.99
2018-06-13T08:14:40.263Z,20.24
2018-06-13T08:17:08.677Z,20.25
2018-06-13T08:19:37.217Z,20.29
2018-06-13T08:22:05.654Z,20.46
2018-06-13T08:24:45.182Z,20.66
2018-06-13T08:27:13.663Z,20.59
2018-06-13T08:29:42.089Z,20.49
2018-06-13T08:32:10.543Z,20.54
2018-06-13T08:34:39.001Z,20.63
2018-06-13T08:37:07.436Z,20.47
2018-06-13T08:39:35.978Z,20.60
2018-06-13T08:42:05.138Z,20.81
2018-06-13T08:44:33.599Z,20.38
2018-06-13T08:47:01.939Z,20.64
2018-06-13T08:49:30.446Z,20.52
2018-06-13T08:52:00.540Z,21.04
2018-06-13T08:54:29.176Z,21.10
2018-06-13T08:56:57.683Z,21.06
2018-06-13T08:59:28.539Z,21.17
2018-06-13T09:01:59.111Z,20.97
2018-06-13T09:04:27.564Z,21.38
2018-06-13T09:06:59.337Z,21.20
2018-06-13T09:09:27.805Z,21.07
2018-06-13T09:11:56.324Z,20.70
2018-06-13T09:14:25.671Z,20.89
2018-06-13T09:16:55.876Z,20.83
2018-06-13T09:19:25.033Z,20.84
2018-06-13T09:21:53.749Z,20.73
2018-06-13T09:24:22.207Z,20.80
2018-06-13T09:26:50.614Z,20.74
2018-06-13T09:29:19.026Z,20.79
2018-06-13T09:31:47.440Z,20.79
2018-06-13T09:34:15.834Z,20.68
2018-06-13T09:36:44.313Z,20.82
2018-06-13T09:39:12.746Z,20.73
2018-06-13T09:41:46.532Z,20.76
2018-06-13T09:44:15.518Z,20.43
2018-06-13T09:46:48.919Z,20.42
2018-06-13T09:49:16.618Z,20.39
2018-06-13T09:51:45.045Z,20.61
2018-06-13T09:54:17.678Z,20.73
2018-06-13T09:56:46.163Z,20.64
2018-06-13T09:59:18.271Z,20.63
2018-06-13T10:02:18.546Z,20.89
2018-06-13T10:04:47.813Z,21.04
2018-06-13T10:07:16.229Z,21.06
2018-06-13T10:09:44.619Z,21.04
2018-06-13T10:12:13.373Z,20.57
2018-06-13T10:14:41.814Z,20.76
2018-06-13T10:17:12.450Z,20.54
2018-06-13T10:19:40.948Z,20.76
2018-06-13T10:22:09.770Z,21.01
2018-06-13T10:24:38.219Z,21.16
2018-06-13T10:27:12.230Z,21.13
2018-06-13T10:29:40.688Z,21.28
2018-06-13T10:32:09.206Z,21.34
2018-06-13T10:34:37.607Z,21.10
2018-06-13T10:37:06.389Z,21.21
2018-06-13T10:39:35.048Z,21.54
2018-06-13T10:42:04.205Z,21.63
2018-06-13T10:44:33.324Z,21.50
2018-06-13T10:47:02.259Z,21.50
2018-06-13T10:49:30.793Z,21.37
2018-06-13T10:51:59.424Z,21.12
2018-06-13T10:54:27.890Z,20.81
2018-06-13T10:56:56.334Z,20.89
2018-06-13T10:59:24.976Z,20.75
2018-06-13T11:01:53.430Z,20.99
2018-06-13T11:04:21.971Z,21.31
2018-06-13T11:06:50.406Z,21.32
2018-06-13T11:09:18.943Z,21.24
2018-06-13T11:11:47.421Z,21.58
2018-06-13T11:14:15.856Z,21.98
2018-06-13T11:16:44.440Z,22.02
2018-06-13T11:19:12.916Z,22.02
2018-06-13T11:21:41.721Z,21.78
2018-06-13T11:24:10.254Z,21.71
2018-06-13T11:26:38.679Z,21.21
2018-06-13T11:29:07.223Z,21.22
2018-06-13T11:31:35.832Z,21.16
2018-06-13T11:34:04.520Z,20.88
2018-06-13T11:36:35.539Z,21.15
2018-06-13T11:39:06.556Z,21.19
2018-06-13T11:41:36.167Z,21.37
2018-06-13T11:44:04.824Z,21.51
2018-06-13T11:46:33.384Z,21.27
2018-06-13T11:49:01.909Z,21.33
2018-06-13T11:51:31.426Z,21.37
2018-06-13T11:54:00.396Z,21.29
2018-06-13T11:56:29.248Z,21.19
2018-06-13T11:58:57.653Z,20.87
2018-06-13T12:01:26.127Z,21.00
2018-06-13T12:03:54.613Z,21.13
2018-06-13T12:06:23.078Z,21.16
2018-06-13T12:08:51.805Z,21.15
2018-06-13T12:11:20.364Z,21.04
2018-06-13T12:13:48.826Z,20.98
2018-06-13T12:16:17.329Z,21.23
2018-06-13T12:18:45.810Z,21.25
2018-06-13T12:21:14.428Z,21.33
2018-06-13T12:23:43.994Z,21.31
2018-06-13T12:26:12.419Z,21.27
2018-06-13T12:28:40.904Z,21.35
2018-06-13T12:31:09.939Z,21.18
2018-06-13T12:33:43.735Z,21.48
2018-06-13T12:36:14.243Z,21.28
2018-06-13T12:38:42.985Z,21.19
2018-06-13T12:41:12.159Z,21.21
2018-06-13T12:43:40.629Z,20.84
2018-06-13T12:46:09.235Z,20.88
2018-06-13T12:48:37.681Z,20.78
2018-06-13T12:51:06.527Z,20.89
2018-06-13T12:53:34.929Z,21.23
2018-06-13T12:56:03.405Z,21.42
2018-06-13T12:58:31.911Z,21.36
2018-06-13T13:01:00.576Z,21.46
2018-06-13T13:03:28.995Z,21.66
2018-06-13T13:05:57.565Z,21.63
2018-06-13T13:08:26.004Z,21.53
2018-06-13T13:10:54.589Z,21.53
2018-06-13T13:13:29.789Z,21.27
2018-06-13T13:15:58.246Z,21.40
2018-06-13T13:18:26.625Z,21.50
2018-06-13T13:20:55.297Z,21.66
2018-06-13T13:23:23.814Z,21.81
2018-06-13T13:25:52.442Z,21.50
2018-06-13T13:28:20.922Z,21.64
2018-06-13T13:30:49.733Z,21.44
2018-06-13T13:33:18.425Z,21.26
2018-06-13T13:35:47.041Z,21.26
2018-06-13T13:38:15.567Z,21.47
2018-06-13T13:40:44.161Z,21.72
2018-06-13T13:43:12.602Z,21.50
2018-06-13T13:45:41.121Z,21.66
2018-06-13T13:48:09.718Z,21.19
2018-06-13T13:50:38.198Z,21.18
2018-06-13T13:53:06.698Z,21.17
2018-06-13T13:55:35.226Z,21.30
2018-06-13T13:58:03.633Z,21.30
2018-06-13T14:00:32.110Z,21.17
2018-06-13T14:03:11.023Z,21.35
2018-06-13T14:05:52.820Z,21.28
2018-06-13T14:08:21.342Z,21.08
2018-06-13T14:10:50.110Z,21.36
2018-06-13T14:13:32.526Z,21.28
2018-06-13T14:16:15.620Z,21.49
2018-06-13T14:18:57.828Z,21.58
2018-06-13T14:21:40.156Z,21.44
2018-06-13T14:24:21.830Z,21.72
2018-06-13T14:26:50.331Z,21.85
2018-06-13T14:29:19.590Z,22.15
2018-06-13T14:31:48.312Z,22.17
2018-06-13T14:34:16.850Z,22.05
2018-06-13T14:36:45.398Z,21.82
2018-06-13T14:39:14.395Z,21.77
2018-06-13T14:41:42.869Z,21.84
2018-06-13T14:44:11.582Z,21.86
2018-06-13T14:46:40.425Z,21.95
2018-06-13T14:49:08.978Z,21.60
2018-06-13T14:51:38.636Z,21.60
2018-06-13T14:54:07.145Z,21.48
2018-06-13T14:56:35.611Z,21.19
2018-06-13T14:59:04.371Z,21.03
2018-06-13T15:01:32.838Z,21.07
2018-06-13T15:04:01.405Z,21.16
2018-06-13T15:06:29.794Z,21.36
2018-06-13T15:08:58.339Z,21.29
2018-06-13T15:11:26.769Z,21.32
2018-06-13T15:13:55.243Z,21.23
2018-06-13T15:16:23.633Z,21.22
2018-06-13T15:18:52.491Z,21.60
2018-06-13T15:21:20.931Z,21.80
2018-06-13T15:23:50.993Z,21.67
2018-06-13T15:26:22.317Z,21.61
2018-06-13T15:28:50.702Z,21.69
2018-06-13T15:31:19.341Z,21.83
2018-06-13T15:33:47.771Z,21.88
2018-06-13T15:36:16.381Z,22.02
2018-06-13T15:38:44.871Z,21.66
2018-06-13T15:41:13.651Z,21.88
2018-06-13T15:43:43.158Z,21.75
2018-06-13T15:46:11.619Z,21.96
2018-06-13T15:48:42.226Z,21.96
2018-06-13T15:51:10.691Z,21.98
2018-06-13T15:53:41.386Z,21.55
2018-06-13T15:56:11.951Z,21.89
2018-06-13T15:58:40.381Z,21.96
2018-06-13T16:01:08.811Z,21.81
2018-06-13T16:03:37.735Z,21.80
2018-06-13T16:06:06.403Z,21.76
2018-06-13T16:08:34.817Z,21.77
2018-06-13T16:11:03.531Z,21.70
2018-06-13T16:13:32.002Z,21.49
2018-06-13T16:16:02.531Z,21.57
2018-06-13T16:18:33.122Z,21.27
2018-06-13T16:21:04.435Z,21.03
2018-06-13T16:23:32.992Z,21.23
2018-06-13T16:26:01.537Z,21.34
2018-06-13T16:28:30.418Z,21.28
2018-06-13T16:31:00.984Z,21.03
2018-06-13T16:33:29.595Z,21.22
2018-06-13T16:35:57.963Z,21.06
2018-06-13T16:38:26.395Z,20.94
2018-06-13T16:40:54.770Z,21.12
2018-06-13T16:43:23.178Z,21.03
2018-06-13T16:45:52.535Z,21.01
2018-06-13T16:48:21.032Z,21.08
2018-06-13T16:51:00.987Z,20.70
2018-06-13T16:53:54.353Z,20.78
2018-06-13T16:56:23.018Z,20.74
2018-06-13T16:58:52.545Z,20.87
2018-06-13T17:01:21.835Z,20.87
2018-06-13T17:03:52.967Z,21.08
2018-06-13T17:06:21.684Z,21.05
2018-06-13T17:08:50.297Z,21.21
2018-06-13T17:11:19.857Z,20.95
2018-06-13T17:13:50.444Z,20.96
2018-06-13T17:16:19.554Z,21.08
2018-06-13T17:18:48.431Z,21.23
2018-06-13T17:21:16.893Z,21.22
2018-06-13T17:23:45.352Z,21.18
2018-06-13T17:26:13.837Z,21.17
2018-06-13T17:28:42.500Z,21.30
2018-06-13T17:31:11.029Z,21.19
2018-06-13T17:33:39.754Z,20.91
2018-06-13T17:36:08.570Z,20.77
2018-06-13T17:38:37.067Z,20.68
2018-06-13T17:41:05.634Z,20.69
2018-06-13T17:43:34.198Z,20.83
2018-06-13T17:46:02.601Z,20.84
2018-06-13T17:48:31.329Z,20.71
2018-06-13T17:51:00.719Z,20.63
2018-06-13T17:53:29.397Z,20.69
2018-06-13T17:55:58.410Z,20.68
2018-06-13T17:58:27.626Z,20.63
2018-06-13T18:00:56.092Z,20.64
2018-06-13T18:03:24.649Z,20.85
2018-06-13T18:05:53.332Z,20.86
2018-06-13T18:08:22.070Z,20.66
2018-06-13T18:10:51.092Z,20.66
2018-06-13T18:13:19.895Z,20.74
2018-06-13T18:15:48.733Z,20.85
2018-06-13T18:18:17.194Z,20.80
2018-06-13T18:20:45.633Z,20.77
2018-06-13T18:23:14.219Z,20.73
2018-06-13T18:25:42.728Z,20.80
2018-06-13T18:28:11.160Z,20.83
2018-06-13T18:30:39.601Z,20.91
2018-06-13T18:33:08.032Z,20.80
2018-06-13T18:35:36.633Z,20.34
2018-06-13T18:38:05.174Z,20.38
2018-06-13T18:40:34.011Z,20.43
2018-06-13T18:43:03.007Z,20.32
2018-06-13T18:45:31.987Z,20.34
2018-06-13T18:48:01.218Z,19.88
2018-06-13T18:50:30.169Z,20.02
2018-06-13T18:52:59.096Z,20.23
2018-06-13T18:55:27.782Z,20.35
2018-06-13T18:57:56.639Z,20.14
2018-06-13T19:00:25.664Z,20.02
2018-06-13T19:02:54.101Z,20.21
2018-06-13T19:05:22.583Z,20.17
2018-06-13T19:07:51.082Z,20.02
2018-06-13T19:10:19.541Z,20.08
2018-06-13T19:12:47.923Z,20.15
2018-06-13T19:15:16.476Z,20.19
2018-06-13T19:17:44.898Z,20.13
2018-06-13T19:20:13.332Z,20.27
2018-06-13T19:22:41.761Z,20.16
2018-06-13T19:25:10.138Z,20.21
2018-06-13T19:27:38.646Z,20.24
2018-06-13T19:30:07.090Z,20.20
2018-06-13T19:32:35.630Z,20.14
2018-06-13T19:35:04.048Z,20.17
2018-06-13T19:37:32.607Z,20.13
2018-06-13T19:40:00.963Z,20.00
2018-06-13T19:42:29.600Z,20.04
2018-06-13T19:44:57.988Z,19.63
2018-06-13T19:47:31.837Z,19.68
2018-06-13T19:50:00.174Z,19.75
2018-06-13T19:52:33.978Z,19.88
2018-06-13T19:55:07.685Z,19.67
2018-06-13T19:57:36.075Z,19.31
2018-06-13T20:00:04.742Z,19.59
2018-06-13T20:02:38.590Z,19.60
2018-06-13T20:05:12.333Z,19.67
2018-06-13T20:07:40.646Z,19.71
2018-06-13T20:10:08.988Z,19.74
2018-06-13T20:12:43.698Z,19.73
2018-06-13T20:15:17.415Z,19.83
2018-06-13T20:17:51.199Z,19.85
2018-06-13T20:20:19.518Z,19.94
2018-06-13T20:22:48.552Z,19.99
2018-06-13T20:25:22.146Z,19.97
2018-06-13T20:27:56.733Z,19.90
2018-06-13T20:30:33.516Z,19.86
2018-06-13T20:33:01.920Z,19.89
2018-06-13T20:35:30.260Z,19.84
2018-06-13T20:37:58.625Z,19.76
2018-06-13T20:40:26.921Z,19.74
2018-06-13T20:42:55.258Z,19.73
2018-06-13T20:45:23.612Z,19.68
2018-06-13T20:47:52.295Z,19.74
2018-06-13T20:50:20.633Z,19.70
2018-06-13T20:52:48.996Z,19.75
2018-06-13T20:55:17.311Z,19.70
2018-06-13T20:57:45.597Z,19.74
2018-06-13T21:00:13.949Z,19.74
2018-06-13T21:02:42.289Z,19.68
2018-06-13T21:05:10.740Z,19.78
2018-06-13T21:07:39.099Z,19.78
2018-06-13T21:10:07.475Z,19.81
2018-06-13T21:12:35.817Z,19.87
2018-06-13T21:15:04.177Z,19.73
2018-06-13T21:17:32.950Z,19.80
2018-06-13T21:20:01.277Z,19.82
2018-06-13T21:22:29.654Z,19.88
2018-06-13T21:24:58.003Z,19.85
2018-06-13T21:27:26.610Z,19.94
2018-06-13T21:29:54.939Z,19.96
2018-06-13T21:32:23.372Z,19.90
2018-06-13T21:34:51.800Z,19.90
2018-06-13T21:37:20.337Z,19.95
2018-06-13T21:39:48.682Z,20.00
2018-06-13T21:42:16.995Z,20.02
2018-06-13T21:44:45.396Z,19.93
2018-06-13T21:47:13.714Z,19.83
2018-06-13T21:49:42.041Z,19.90
2018-06-13T21:52:10.389Z,19.91
2018-06-13T21:54:38.709Z,19.97
2018-06-13T21:57:07.061Z,19.96
2018-06-13T21:59:35.374Z,19.95
2018-06-13T22:02:03.887Z,19.90
2018-06-13T22:04:32.254Z,19.86
2018-06-13T22:07:00.762Z,19.72
2018-06-13T22:09:29.059Z,19.49
2018-06-13T22:11:57.402Z,19.52
2018-06-13T22:14:26.574Z,19.53
2018-06-13T22:16:54.910Z,19.48
2018-06-13T22:19:23.703Z,19.50
2018-06-13T22:21:52.216Z,19.41
2018-06-13T22:24:20.615Z,19.48
2018-06-13T22:26:48.929Z,19.27
2018-06-13T22:29:17.262Z,19.09
2018-06-13T22:31:45.636Z,19.21
2018-06-13T22:34:14.010Z,19.18
2018-06-13T22:36:42.422Z,19.17
2018-06-13T22:39:12.365Z,18.90
2018-06-13T22:41:41.218Z,19.01
2018-06-13T22:44:09.568Z,18.94
2018-06-13T22:46:37.946Z,18.79
2018-06-13T22:49:06.517Z,18.72
2018-06-13T22:51:35.069Z,18.72
2018-06-13T22:54:03.437Z,18.74
2018-06-13T22:56:31.885Z,18.66
2018-06-13T22:59:00.207Z,18.81
2018-06-13T23:01:28.532Z,18.85
2018-06-13T23:03:56.911Z,18.98
2018-06-13T23:06:25.235Z,18.88
2018-06-13T23:08:53.564Z,18.86
2018-06-13T23:11:21.918Z,18.90
2018-06-13T23:13:50.237Z,18.93
2018-06-13T23:16:18.591Z,18.93
2018-06-13T23:18:46.915Z,18.98
2018-06-13T23:21:15.221Z,18.98
2018-06-13T23:23:43.550Z,18.89
2018-06-13T23:26:11.865Z,18.96
2018-06-13T23:28:40.195Z,18.88
2018-06-13T23:31:08.550Z,18.74
2018-06-13T23:33:36.915Z,18.88
2018-06-13T23:36:05.300Z,18.88
2018-06-13T23:38:33.647Z,18.96
2018-06-13T23:41:01.978Z,18.98
2018-06-13T23:43:30.334Z,19.04
2018-06-13T23:45:58.669Z,19.01
2018-06-13T23:48:27.012Z,18.91
2018-06-13T23:50:55.326Z,18.95
2018-06-13T23:53:23.665Z,18.88
2018-06-13T23:55:51.977Z,18.89
2018-06-13T23:58:20.337Z,18.86
